sensor_id;sensor_type;location;lat;lon;timestamp;P1;durP1;ratioP1;P2;durP2;ratioP2
36221;SDS011;22266;52.340;4.962;2023-05-27T00:00:54;1.25;;;1.25;;
36221;SDS011;22266;52.340;4.962;2023-05-27T00:03:20;2.50;;;2.50;;
36221;SDS011;22266;52.340;4.962;2023-05-27T00:05:47;2.50;;;2.25;;
36221;SDS011;22266;52.340;4.962;2023-05-27T00:08:14;2.00;;;1.00;;
36221;SDS011;22266;52.340;4.962;2023-05-27T00:10:40;3.00;;;1.00;;
36221;SDS011;22266;52.340;4.962;2023-05-27T00:13:07;2.00;;;2.00;;
36221;SDS011;22266;52.340;4.962;2023-05-27T00:15:33;2.00;;;2.00;;
36221;SDS011;22266;52.340;4.962;2023-05-27T00:18:00;2.75;;;2.75;;
36221;SDS011;22266;52.340;4.962;2023-05-27T00:20:28;1.25;;;1.25;;
36221;SDS011;22266;52.340;4.962;2023-05-27T00:22:57;3.00;;;2.00;;
36221;SDS011;22266;52.340;4.962;2023-05-27T00:25:25;7.00;;;2.00;;
36221;SDS011;22266;52.340;4.962;2023-05-27T00:27:53;2.25;;;2.25;;
36221;SDS011;22266;52.340;4.962;2023-05-27T00:30:21;2.00;;;1.00;;
36221;SDS011;22266;52.340;4.962;2023-05-27T00:32:47;5.00;;;2.75;;
36221;SDS011;22266;52.340;4.962;2023-05-27T00:35:14;4.50;;;2.75;;
36221;SDS011;22266;52.340;4.962;2023-05-27T00:37:41;2.50;;;2.50;;
36221;SDS011;22266;52.340;4.962;2023-05-27T00:40:09;3.25;;;2.00;;
36221;SDS011;22266;52.340;4.962;2023-05-27T00:42:37;2.00;;;2.00;;
36221;SDS011;22266;52.340;4.962;2023-05-27T00:45:04;2.25;;;2.25;;
36221;SDS011;22266;52.340;4.962;2023-05-27T00:47:31;3.50;;;3.50;;
36221;SDS011;22266;52.340;4.962;2023-05-27T00:49:59;1.25;;;1.25;;
36221;SDS011;22266;52.340;4.962;2023-05-27T00:52:27;7.00;;;3.00;;
36221;SDS011;22266;52.340;4.962;2023-05-27T00:54:55;3.50;;;2.00;;
36221;SDS011;22266;52.340;4.962;2023-05-27T00:57:22;5.25;;;3.50;;
36221;SDS011;22266;52.340;4.962;2023-05-27T00:59:49;4.25;;;2.00;;
36221;SDS011;22266;52.340;4.962;2023-05-27T01:02:15;2.00;;;2.00;;
36221;SDS011;22266;52.340;4.962;2023-05-27T01:04:43;3.25;;;1.00;;
36221;SDS011;22266;52.340;4.962;2023-05-27T01:07:29;4.00;;;1.00;;
36221;SDS011;22266;52.340;4.962;2023-05-27T01:10:06;2.00;;;2.00;;
36221;SDS011;22266;52.340;4.962;2023-05-27T01:13:01;3.25;;;2.00;;
36221;SDS011;22266;52.340;4.962;2023-05-27T01:15:38;3.00;;;2.50;;
36221;SDS011;22266;52.340;4.962;2023-05-27T01:18:07;3.00;;;3.00;;
36221;SDS011;22266;52.340;4.962;2023-05-27T01:20:35;3.50;;;3.00;;
36221;SDS011;22266;52.340;4.962;2023-05-27T01:23:10;4.50;;;1.75;;
36221;SDS011;22266;52.340;4.962;2023-05-27T01:25:37;2.00;;;2.00;;
36221;SDS011;22266;52.340;4.962;2023-05-27T01:28:03;1.00;;;1.00;;
36221;SDS011;22266;52.340;4.962;2023-05-27T01:30:30;4.25;;;2.50;;
36221;SDS011;22266;52.340;4.962;2023-05-27T01:32:59;3.50;;;2.25;;
36221;SDS011;22266;52.340;4.962;2023-05-27T01:35:50;3.50;;;2.25;;
36221;SDS011;22266;52.340;4.962;2023-05-27T01:38:20;2.00;;;2.00;;
36221;SDS011;22266;52.340;4.962;2023-05-27T01:40:49;2.00;;;2.00;;
36221;SDS011;22266;52.340;4.962;2023-05-27T01:43:17;2.50;;;2.50;;
36221;SDS011;22266;52.340;4.962;2023-05-27T01:45:44;2.00;;;2.00;;
36221;SDS011;22266;52.340;4.962;2023-05-27T01:48:12;1.50;;;1.50;;
36221;SDS011;22266;52.340;4.962;2023-05-27T01:50:38;4.50;;;3.00;;
36221;SDS011;22266;52.340;4.962;2023-05-27T01:53:05;1.00;;;1.00;;
36221;SDS011;22266;52.340;4.962;2023-05-27T01:55:31;2.00;;;2.00;;
36221;SDS011;22266;52.340;4.962;2023-05-27T01:57:58;2.25;;;2.00;;
36221;SDS011;22266;52.340;4.962;2023-05-27T02:00:25;1.25;;;1.00;;
36221;SDS011;22266;52.340;4.962;2023-05-27T02:02:51;5.50;;;5.00;;
36221;SDS011;22266;52.340;4.962;2023-05-27T02:05:18;2.00;;;1.75;;
36221;SDS011;22266;52.340;4.962;2023-05-27T02:07:45;2.75;;;2.00;;
36221;SDS011;22266;52.340;4.962;2023-05-27T02:10:12;2.00;;;2.00;;
36221;SDS011;22266;52.340;4.962;2023-05-27T02:12:39;2.00;;;2.00;;
36221;SDS011;22266;52.340;4.962;2023-05-27T02:15:07;5.00;;;2.00;;
36221;SDS011;22266;52.340;4.962;2023-05-27T02:17:34;2.00;;;2.00;;
36221;SDS011;22266;52.340;4.962;2023-05-27T02:20:00;1.75;;;1.75;;
36221;SDS011;22266;52.340;4.962;2023-05-27T02:22:27;3.00;;;1.00;;
36221;SDS011;22266;52.340;4.962;2023-05-27T02:24:54;3.00;;;3.00;;
36221;SDS011;22266;52.340;4.962;2023-05-27T02:27:20;3.25;;;2.50;;
36221;SDS011;22266;52.340;4.962;2023-05-27T02:29:47;6.00;;;3.00;;
36221;SDS011;22266;52.340;4.962;2023-05-27T02:32:15;6.00;;;3.00;;
36221;SDS011;22266;52.340;4.962;2023-05-27T02:34:42;6.50;;;2.00;;
36221;SDS011;22266;52.340;4.962;2023-05-27T02:37:10;5.50;;;3.00;;
36221;SDS011;22266;52.340;4.962;2023-05-27T02:39:38;3.00;;;2.75;;
36221;SDS011;22266;52.340;4.962;2023-05-27T02:42:05;2.00;;;2.00;;
36221;SDS011;22266;52.340;4.962;2023-05-27T02:44:32;2.50;;;2.00;;
36221;SDS011;22266;52.340;4.962;2023-05-27T02:46:59;5.50;;;2.00;;
36221;SDS011;22266;52.340;4.962;2023-05-27T02:49:26;5.00;;;2.25;;
36221;SDS011;22266;52.340;4.962;2023-05-27T02:51:53;2.25;;;2.00;;
36221;SDS011;22266;52.340;4.962;2023-05-27T02:54:19;2.75;;;2.00;;
36221;SDS011;22266;52.340;4.962;2023-05-27T02:56:46;5.75;;;4.50;;
36221;SDS011;22266;52.340;4.962;2023-05-27T02:59:12;4.75;;;2.75;;
36221;SDS011;22266;52.340;4.962;2023-05-27T03:01:39;6.00;;;2.00;;
36221;SDS011;22266;52.340;4.962;2023-05-27T03:04:06;3.50;;;2.75;;
36221;SDS011;22266;52.340;4.962;2023-05-27T03:06:32;3.25;;;3.25;;
36221;SDS011;22266;52.340;4.962;2023-05-27T03:08:59;4.25;;;4.00;;
36221;SDS011;22266;52.340;4.962;2023-05-27T03:11:26;1.50;;;1.50;;
36221;SDS011;22266;52.340;4.962;2023-05-27T03:13:52;2.00;;;2.00;;
36221;SDS011;22266;52.340;4.962;2023-05-27T03:16:19;1.75;;;1.50;;
36221;SDS011;22266;52.340;4.962;2023-05-27T03:18:46;3.00;;;3.00;;
36221;SDS011;22266;52.340;4.962;2023-05-27T03:21:13;2.50;;;2.00;;
36221;SDS011;22266;52.340;4.962;2023-05-27T03:23:40;2.75;;;2.25;;
36221;SDS011;22266;52.340;4.962;2023-05-27T03:26:07;2.25;;;1.75;;
36221;SDS011;22266;52.340;4.962;2023-05-27T03:28:33;1.50;;;1.50;;
36221;SDS011;22266;52.340;4.962;2023-05-27T03:31:00;6.75;;;5.50;;
36221;SDS011;22266;52.340;4.962;2023-05-27T03:33:43;7.00;;;2.00;;
36221;SDS011;22266;52.340;4.962;2023-05-27T03:36:10;4.00;;;3.00;;
36221;SDS011;22266;52.340;4.962;2023-05-27T03:38:37;3.00;;;2.25;;
36221;SDS011;22266;52.340;4.962;2023-05-27T03:41:03;6.75;;;2.75;;
36221;SDS011;22266;52.340;4.962;2023-05-27T03:43:34;2.25;;;2.25;;
36221;SDS011;22266;52.340;4.962;2023-05-27T03:46:00;4.25;;;3.50;;
36221;SDS011;22266;52.340;4.962;2023-05-27T03:48:28;4.00;;;3.00;;
36221;SDS011;22266;52.340;4.962;2023-05-27T03:50:54;7.00;;;5.00;;
36221;SDS011;22266;52.340;4.962;2023-05-27T03:53:22;3.50;;;2.75;;
36221;SDS011;22266;52.340;4.962;2023-05-27T03:55:48;1.25;;;1.25;;
36221;SDS011;22266;52.340;4.962;2023-05-27T03:58:22;4.00;;;1.75;;
36221;SDS011;22266;52.340;4.962;2023-05-27T04:00:49;2.00;;;1.75;;
36221;SDS011;22266;52.340;4.962;2023-05-27T04:03:16;1.75;;;1.75;;
36221;SDS011;22266;52.340;4.962;2023-05-27T04:05:42;5.25;;;4.50;;
36221;SDS011;22266;52.340;4.962;2023-05-27T04:08:09;2.00;;;2.00;;
36221;SDS011;22266;52.340;4.962;2023-05-27T04:10:35;6.50;;;3.00;;
36221;SDS011;22266;52.340;4.962;2023-05-27T04:13:02;3.00;;;2.00;;
36221;SDS011;22266;52.340;4.962;2023-05-27T04:15:28;3.25;;;1.75;;
36221;SDS011;22266;52.340;4.962;2023-05-27T04:17:57;4.25;;;3.75;;
36221;SDS011;22266;52.340;4.962;2023-05-27T04:20:24;2.50;;;2.00;;
36221;SDS011;22266;52.340;4.962;2023-05-27T04:22:56;5.00;;;4.00;;
36221;SDS011;22266;52.340;4.962;2023-05-27T04:25:23;6.75;;;2.75;;
36221;SDS011;22266;52.340;4.962;2023-05-27T04:28:18;5.00;;;4.00;;
36221;SDS011;22266;52.340;4.962;2023-05-27T04:30:45;2.00;;;2.00;;
36221;SDS011;22266;52.340;4.962;2023-05-27T04:33:25;2.00;;;2.00;;
36221;SDS011;22266;52.340;4.962;2023-05-27T04:35:53;5.00;;;3.00;;
36221;SDS011;22266;52.340;4.962;2023-05-27T04:38:20;3.50;;;2.25;;
36221;SDS011;22266;52.340;4.962;2023-05-27T04:40:58;2.50;;;1.75;;
36221;SDS011;22266;52.340;4.962;2023-05-27T04:43:44;5.00;;;4.25;;
36221;SDS011;22266;52.340;4.962;2023-05-27T04:46:14;6.00;;;3.00;;
36221;SDS011;22266;52.340;4.962;2023-05-27T04:48:41;4.00;;;4.00;;
36221;SDS011;22266;52.340;4.962;2023-05-27T04:51:10;4.75;;;3.00;;
36221;SDS011;22266;52.340;4.962;2023-05-27T04:53:37;5.00;;;2.75;;
36221;SDS011;22266;52.340;4.962;2023-05-27T04:56:04;5.75;;;4.25;;
36221;SDS011;22266;52.340;4.962;2023-05-27T04:58:31;5.00;;;5.00;;
36221;SDS011;22266;52.340;4.962;2023-05-27T05:01:01;8.75;;;2.00;;
36221;SDS011;22266;52.340;4.962;2023-05-27T05:03:27;2.50;;;2.50;;
36221;SDS011;22266;52.340;4.962;2023-05-27T05:06:05;1.00;;;1.00;;
36221;SDS011;22266;52.340;4.962;2023-05-27T05:08:32;7.00;;;5.00;;
36221;SDS011;22266;52.340;4.962;2023-05-27T05:10:59;2.00;;;2.00;;
36221;SDS011;22266;52.340;4.962;2023-05-27T05:13:26;3.50;;;2.00;;
36221;SDS011;22266;52.340;4.962;2023-05-27T05:15:55;4.25;;;4.25;;
36221;SDS011;22266;52.340;4.962;2023-05-27T05:18:22;2.50;;;2.50;;
36221;SDS011;22266;52.340;4.962;2023-05-27T05:20:49;2.50;;;1.00;;
36221;SDS011;22266;52.340;4.962;2023-05-27T05:23:22;5.25;;;2.50;;
36221;SDS011;22266;52.340;4.962;2023-05-27T05:25:49;8.75;;;3.75;;
36221;SDS011;22266;52.340;4.962;2023-05-27T05:28:21;2.50;;;2.50;;
36221;SDS011;22266;52.340;4.962;2023-05-27T05:30:49;7.50;;;3.50;;
36221;SDS011;22266;52.340;4.962;2023-05-27T05:33:16;5.75;;;5.00;;
36221;SDS011;22266;52.340;4.962;2023-05-27T05:35:44;7.00;;;5.00;;
36221;SDS011;22266;52.340;4.962;2023-05-27T05:38:19;3.00;;;2.50;;
36221;SDS011;22266;52.340;4.962;2023-05-27T05:40:48;4.25;;;4.25;;
36221;SDS011;22266;52.340;4.962;2023-05-27T05:43:18;4.00;;;4.00;;
36221;SDS011;22266;52.340;4.962;2023-05-27T05:45:47;4.50;;;2.00;;
36221;SDS011;22266;52.340;4.962;2023-05-27T05:48:15;4.75;;;2.25;;
36221;SDS011;22266;52.340;4.962;2023-05-27T05:50:42;2.50;;;2.50;;
36221;SDS011;22266;52.340;4.962;2023-05-27T05:53:10;2.25;;;2.00;;
36221;SDS011;22266;52.340;4.962;2023-05-27T05:55:37;5.50;;;5.50;;
36221;SDS011;22266;52.340;4.962;2023-05-27T05:58:04;4.75;;;3.50;;
36221;SDS011;22266;52.340;4.962;2023-05-27T06:00:30;2.50;;;2.00;;
36221;SDS011;22266;52.340;4.962;2023-05-27T06:03:18;3.00;;;2.00;;
36221;SDS011;22266;52.340;4.962;2023-05-27T06:05:48;4.00;;;2.75;;
36221;SDS011;22266;52.340;4.962;2023-05-27T06:08:14;4.50;;;2.75;;
36221;SDS011;22266;52.340;4.962;2023-05-27T06:10:48;8.25;;;6.00;;
36221;SDS011;22266;52.340;4.962;2023-05-27T06:13:15;6.00;;;4.00;;
36221;SDS011;22266;52.340;4.962;2023-05-27T06:15:43;5.75;;;5.50;;
36221;SDS011;22266;52.340;4.962;2023-05-27T06:18:11;3.00;;;2.50;;
36221;SDS011;22266;52.340;4.962;2023-05-27T06:20:38;9.00;;;4.00;;
36221;SDS011;22266;52.340;4.962;2023-05-27T06:23:05;4.00;;;4.00;;
36221;SDS011;22266;52.340;4.962;2023-05-27T06:25:32;4.50;;;4.50;;
36221;SDS011;22266;52.340;4.962;2023-05-27T06:28:03;6.75;;;5.75;;
36221;SDS011;22266;52.340;4.962;2023-05-27T06:30:35;4.00;;;4.00;;
36221;SDS011;22266;52.340;4.962;2023-05-27T06:33:05;3.00;;;3.00;;
36221;SDS011;22266;52.340;4.962;2023-05-27T06:35:32;4.75;;;2.50;;
36221;SDS011;22266;52.340;4.962;2023-05-27T06:38:00;5.00;;;4.50;;
36221;SDS011;22266;52.340;4.962;2023-05-27T06:40:26;6.50;;;5.00;;
36221;SDS011;22266;52.340;4.962;2023-05-27T06:42:53;3.00;;;3.00;;
36221;SDS011;22266;52.340;4.962;2023-05-27T06:45:36;5.25;;;5.25;;
36221;SDS011;22266;52.340;4.962;2023-05-27T06:48:28;6.00;;;5.00;;
36221;SDS011;22266;52.340;4.962;2023-05-27T06:50:57;6.75;;;5.00;;
36221;SDS011;22266;52.340;4.962;2023-05-27T06:53:24;6.00;;;4.50;;
36221;SDS011;22266;52.340;4.962;2023-05-27T06:56:10;1.75;;;1.75;;
36221;SDS011;22266;52.340;4.962;2023-05-27T06:58:57;6.25;;;4.75;;
36221;SDS011;22266;52.340;4.962;2023-05-27T07:01:23;6.00;;;5.25;;
36221;SDS011;22266;52.340;4.962;2023-05-27T07:04:00;5.25;;;5.25;;
36221;SDS011;22266;52.340;4.962;2023-05-27T07:06:59;7.25;;;5.75;;
36221;SDS011;22266;52.340;4.962;2023-05-27T07:09:25;6.00;;;5.00;;
36221;SDS011;22266;52.340;4.962;2023-05-27T07:11:54;5.00;;;5.00;;
36221;SDS011;22266;52.340;4.962;2023-05-27T07:14:40;6.25;;;6.00;;
36221;SDS011;22266;52.340;4.962;2023-05-27T07:17:08;5.00;;;4.50;;
36221;SDS011;22266;52.340;4.962;2023-05-27T07:19:35;6.50;;;6.50;;
36221;SDS011;22266;52.340;4.962;2023-05-27T07:22:06;3.00;;;1.75;;
36221;SDS011;22266;52.340;4.962;2023-05-27T07:24:33;5.50;;;3.00;;
36221;SDS011;22266;52.340;4.962;2023-05-27T07:26:59;3.25;;;3.00;;
36221;SDS011;22266;52.340;4.962;2023-05-27T07:29:28;5.50;;;4.00;;
36221;SDS011;22266;52.340;4.962;2023-05-27T07:32:12;6.25;;;2.75;;
36221;SDS011;22266;52.340;4.962;2023-05-27T07:34:39;5.00;;;3.75;;
36221;SDS011;22266;52.340;4.962;2023-05-27T07:37:07;7.00;;;7.00;;
36221;SDS011;22266;52.340;4.962;2023-05-27T07:39:34;6.00;;;3.75;;
36221;SDS011;22266;52.340;4.962;2023-05-27T07:42:01;5.00;;;2.00;;
36221;SDS011;22266;52.340;4.962;2023-05-27T07:44:29;7.50;;;5.00;;
36221;SDS011;22266;52.340;4.962;2023-05-27T07:46:57;5.50;;;5.00;;
36221;SDS011;22266;52.340;4.962;2023-05-27T07:49:24;7.75;;;5.00;;
36221;SDS011;22266;52.340;4.962;2023-05-27T07:52:03;6.00;;;6.00;;
36221;SDS011;22266;52.340;4.962;2023-05-27T07:54:30;4.50;;;2.25;;
36221;SDS011;22266;52.340;4.962;2023-05-27T07:57:00;3.50;;;2.00;;
36221;SDS011;22266;52.340;4.962;2023-05-27T07:59:27;6.25;;;6.25;;
36221;SDS011;22266;52.340;4.962;2023-05-27T08:01:54;2.00;;;2.00;;
36221;SDS011;22266;52.340;4.962;2023-05-27T08:04:20;2.00;;;2.00;;
36221;SDS011;22266;52.340;4.962;2023-05-27T08:07:17;6.00;;;6.00;;
36221;SDS011;22266;52.340;4.962;2023-05-27T08:09:51;9.00;;;6.75;;
36221;SDS011;22266;52.340;4.962;2023-05-27T08:12:41;6.25;;;4.00;;
36221;SDS011;22266;52.340;4.962;2023-05-27T08:15:20;10.50;;;7.00;;
36221;SDS011;22266;52.340;4.962;2023-05-27T08:17:59;4.50;;;4.50;;
36221;SDS011;22266;52.340;4.962;2023-05-27T08:20:37;4.50;;;4.50;;
36221;SDS011;22266;52.340;4.962;2023-05-27T08:23:22;5.50;;;5.50;;
36221;SDS011;22266;52.340;4.962;2023-05-27T08:26:07;5.00;;;5.00;;
36221;SDS011;22266;52.340;4.962;2023-05-27T08:28:51;7.25;;;7.25;;
36221;SDS011;22266;52.340;4.962;2023-05-27T08:31:40;4.50;;;4.50;;
36221;SDS011;22266;52.340;4.962;2023-05-27T08:34:07;5.75;;;4.50;;
36221;SDS011;22266;52.340;4.962;2023-05-27T08:36:34;6.00;;;6.00;;
36221;SDS011;22266;52.340;4.962;2023-05-27T08:39:01;4.50;;;4.25;;
36221;SDS011;22266;52.340;4.962;2023-05-27T08:41:33;5.00;;;5.00;;
36221;SDS011;22266;52.340;4.962;2023-05-27T08:44:02;8.50;;;7.50;;
36221;SDS011;22266;52.340;4.962;2023-05-27T08:46:53;8.75;;;6.75;;
36221;SDS011;22266;52.340;4.962;2023-05-27T08:49:22;9.00;;;7.25;;
36221;SDS011;22266;52.340;4.962;2023-05-27T08:51:49;6.75;;;5.00;;
36221;SDS011;22266;52.340;4.962;2023-05-27T08:54:20;5.50;;;5.50;;
36221;SDS011;22266;52.340;4.962;2023-05-27T08:56:47;9.50;;;5.00;;
36221;SDS011;22266;52.340;4.962;2023-05-27T08:59:17;9.00;;;6.75;;
36221;SDS011;22266;52.340;4.962;2023-05-27T09:01:43;6.00;;;4.00;;
36221;SDS011;22266;52.340;4.962;2023-05-27T09:04:11;3.75;;;3.00;;
36221;SDS011;22266;52.340;4.962;2023-05-27T09:06:37;8.50;;;7.75;;
36221;SDS011;22266;52.340;4.962;2023-05-27T09:09:06;6.50;;;5.00;;
36221;SDS011;22266;52.340;4.962;2023-05-27T09:11:38;7.75;;;6.75;;
36221;SDS011;22266;52.340;4.962;2023-05-27T09:14:06;6.00;;;6.00;;
36221;SDS011;22266;52.340;4.962;2023-05-27T09:16:32;8.25;;;8.25;;
36221;SDS011;22266;52.340;4.962;2023-05-27T09:18:59;9.00;;;3.75;;
36221;SDS011;22266;52.340;4.962;2023-05-27T09:21:25;7.25;;;5.50;;
36221;SDS011;22266;52.340;4.962;2023-05-27T09:23:55;8.25;;;8.00;;
36221;SDS011;22266;52.340;4.962;2023-05-27T09:26:23;9.25;;;8.25;;
36221;SDS011;22266;52.340;4.962;2023-05-27T09:28:50;9.75;;;8.00;;
36221;SDS011;22266;52.340;4.962;2023-05-27T09:31:16;8.50;;;6.00;;
36221;SDS011;22266;52.340;4.962;2023-05-27T09:33:42;4.75;;;3.25;;
36221;SDS011;22266;52.340;4.962;2023-05-27T09:36:09;8.00;;;6.00;;
36221;SDS011;22266;52.340;4.962;2023-05-27T09:38:36;8.00;;;7.00;;
36221;SDS011;22266;52.340;4.962;2023-05-27T09:41:03;5.50;;;5.00;;
36221;SDS011;22266;52.340;4.962;2023-05-27T09:43:30;7.00;;;6.00;;
36221;SDS011;22266;52.340;4.962;2023-05-27T09:45:58;9.75;;;9.00;;
36221;SDS011;22266;52.340;4.962;2023-05-27T09:48:28;8.25;;;6.00;;
36221;SDS011;22266;52.340;4.962;2023-05-27T09:50:58;4.50;;;4.50;;
36221;SDS011;22266;52.340;4.962;2023-05-27T09:53:26;6.00;;;6.00;;
36221;SDS011;22266;52.340;4.962;2023-05-27T09:55:54;4.50;;;3.75;;
36221;SDS011;22266;52.340;4.962;2023-05-27T09:58:22;4.00;;;4.00;;
36221;SDS011;22266;52.340;4.962;2023-05-27T10:00:49;11.75;;;8.00;;
36221;SDS011;22266;52.340;4.962;2023-05-27T10:03:20;8.25;;;7.75;;
36221;SDS011;22266;52.340;4.962;2023-05-27T10:05:48;6.25;;;6.00;;
36221;SDS011;22266;52.340;4.962;2023-05-27T10:08:16;7.75;;;6.75;;
36221;SDS011;22266;52.340;4.962;2023-05-27T10:10:49;7.00;;;7.00;;
36221;SDS011;22266;52.340;4.962;2023-05-27T10:13:18;5.67;;;5.67;;
36221;SDS011;22266;52.340;4.962;2023-05-27T10:15:46;10.00;;;7.00;;
36221;SDS011;22266;52.340;4.962;2023-05-27T10:18:26;8.75;;;6.00;;
36221;SDS011;22266;52.340;4.962;2023-05-27T10:20:56;9.25;;;6.75;;
36221;SDS011;22266;52.340;4.962;2023-05-27T10:23:25;3.00;;;3.00;;
36221;SDS011;22266;52.340;4.962;2023-05-27T10:26:00;5.75;;;5.00;;
36221;SDS011;22266;52.340;4.962;2023-05-27T10:28:38;3.33;;;3.33;;
36221;SDS011;22266;52.340;4.962;2023-05-27T10:33:37;8.75;;;8.50;;
36221;SDS011;22266;52.340;4.962;2023-05-27T10:36:12;6.00;;;6.00;;
36221;SDS011;22266;52.340;4.962;2023-05-27T10:38:41;5.33;;;5.00;;
36221;SDS011;22266;52.340;4.962;2023-05-27T10:41:08;15.25;;;7.50;;
36221;SDS011;22266;52.340;4.962;2023-05-27T10:43:36;9.50;;;9.50;;
36221;SDS011;22266;52.340;4.962;2023-05-27T10:46:09;7.50;;;7.25;;
36221;SDS011;22266;52.340;4.962;2023-05-27T10:48:38;7.00;;;6.00;;
36221;SDS011;22266;52.340;4.962;2023-05-27T10:51:08;6.25;;;4.00;;
36221;SDS011;22266;52.340;4.962;2023-05-27T10:53:35;6.75;;;6.75;;
36221;SDS011;22266;52.340;4.962;2023-05-27T10:56:03;5.50;;;5.25;;
36221;SDS011;22266;52.340;4.962;2023-05-27T10:58:30;10.00;;;6.25;;
36221;SDS011;22266;52.340;4.962;2023-05-27T11:01:07;6.50;;;6.50;;
36221;SDS011;22266;52.340;4.962;2023-05-27T11:03:41;8.50;;;8.00;;
36221;SDS011;22266;52.340;4.962;2023-05-27T11:06:09;7.50;;;7.00;;
36221;SDS011;22266;52.340;4.962;2023-05-27T11:08:37;5.33;;;5.33;;
36221;SDS011;22266;52.340;4.962;2023-05-27T11:11:06;6.50;;;6.50;;
36221;SDS011;22266;52.340;4.962;2023-05-27T11:13:35;8.25;;;8.25;;
36221;SDS011;22266;52.340;4.962;2023-05-27T11:16:06;9.25;;;9.00;;
36221;SDS011;22266;52.340;4.962;2023-05-27T11:18:37;6.00;;;5.00;;
36221;SDS011;22266;52.340;4.962;2023-05-27T11:21:08;6.00;;;5.00;;
36221;SDS011;22266;52.340;4.962;2023-05-27T11:23:36;6.00;;;6.00;;
36221;SDS011;22266;52.340;4.962;2023-05-27T11:26:03;8.00;;;7.00;;
36221;SDS011;22266;52.340;4.962;2023-05-27T11:28:30;8.00;;;6.00;;
36221;SDS011;22266;52.340;4.962;2023-05-27T11:31:01;7.00;;;7.00;;
36221;SDS011;22266;52.340;4.962;2023-05-27T11:33:30;9.50;;;7.25;;
36221;SDS011;22266;52.340;4.962;2023-05-27T11:36:06;6.75;;;6.75;;
36221;SDS011;22266;52.340;4.962;2023-05-27T11:41:19;6.33;;;6.00;;
36221;SDS011;22266;52.340;4.962;2023-05-27T11:44:07;7.33;;;6.00;;
36221;SDS011;22266;52.340;4.962;2023-05-27T11:46:37;10.33;;;7.33;;
36221;SDS011;22266;52.340;4.962;2023-05-27T11:49:08;13.33;;;8.67;;
36221;SDS011;22266;52.340;4.962;2023-05-27T11:51:37;10.33;;;9.33;;
36221;SDS011;22266;52.340;4.962;2023-05-27T11:54:06;6.33;;;6.33;;
36221;SDS011;22266;52.340;4.962;2023-05-27T11:56:33;9.00;;;6.00;;
36221;SDS011;22266;52.340;4.962;2023-05-27T11:59:00;7.75;;;7.75;;
36221;SDS011;22266;52.340;4.962;2023-05-27T12:01:26;7.67;;;5.67;;
36221;SDS011;22266;52.340;4.962;2023-05-27T12:03:53;8.33;;;6.67;;
36221;SDS011;22266;52.340;4.962;2023-05-27T12:06:20;7.33;;;7.33;;
36221;SDS011;22266;52.340;4.962;2023-05-27T12:08:46;6.33;;;4.33;;
36221;SDS011;22266;52.340;4.962;2023-05-27T12:11:13;10.00;;;8.33;;
36221;SDS011;22266;52.340;4.962;2023-05-27T12:13:39;12.25;;;10.50;;
36221;SDS011;22266;52.340;4.962;2023-05-27T12:16:06;9.67;;;8.67;;
36221;SDS011;22266;52.340;4.962;2023-05-27T12:18:33;8.33;;;7.00;;
36221;SDS011;22266;52.340;4.962;2023-05-27T12:20:59;10.00;;;9.67;;
36221;SDS011;22266;52.340;4.962;2023-05-27T12:23:26;7.67;;;7.33;;
36221;SDS011;22266;52.340;4.962;2023-05-27T12:25:52;13.00;;;9.67;;
36221;SDS011;22266;52.340;4.962;2023-05-27T12:28:19;9.00;;;7.00;;
36221;SDS011;22266;52.340;4.962;2023-05-27T12:30:46;7.33;;;6.00;;
36221;SDS011;22266;52.340;4.962;2023-05-27T12:33:13;12.00;;;8.67;;
36221;SDS011;22266;52.340;4.962;2023-05-27T12:35:39;9.67;;;7.00;;
36221;SDS011;22266;52.340;4.962;2023-05-27T12:38:07;8.67;;;7.67;;
36221;SDS011;22266;52.340;4.962;2023-05-27T12:40:33;9.67;;;8.33;;
36221;SDS011;22266;52.340;4.962;2023-05-27T12:43:00;15.67;;;12.33;;
36221;SDS011;22266;52.340;4.962;2023-05-27T12:45:30;9.67;;;9.00;;
36221;SDS011;22266;52.340;4.962;2023-05-27T12:47:57;7.67;;;7.67;;
36221;SDS011;22266;52.340;4.962;2023-05-27T12:50:24;9.67;;;8.67;;
36221;SDS011;22266;52.340;4.962;2023-05-27T12:52:52;7.00;;;7.00;;
36221;SDS011;22266;52.340;4.962;2023-05-27T12:55:19;16.33;;;11.00;;
36221;SDS011;22266;52.340;4.962;2023-05-27T12:57:51;7.00;;;7.00;;
36221;SDS011;22266;52.340;4.962;2023-05-27T13:00:18;6.33;;;6.33;;
36221;SDS011;22266;52.340;4.962;2023-05-27T13:02:46;7.67;;;7.67;;
36221;SDS011;22266;52.340;4.962;2023-05-27T13:05:16;11.67;;;8.67;;
36221;SDS011;22266;52.340;4.962;2023-05-27T13:07:55;9.67;;;5.67;;
36221;SDS011;22266;52.340;4.962;2023-05-27T13:10:23;5.33;;;5.33;;
36221;SDS011;22266;52.340;4.962;2023-05-27T13:12:50;11.33;;;9.00;;
36221;SDS011;22266;52.340;4.962;2023-05-27T13:15:17;8.33;;;7.33;;
36221;SDS011;22266;52.340;4.962;2023-05-27T13:17:44;8.00;;;7.00;;
36221;SDS011;22266;52.340;4.962;2023-05-27T13:20:12;8.00;;;7.00;;
36221;SDS011;22266;52.340;4.962;2023-05-27T13:22:41;10.00;;;8.67;;
36221;SDS011;22266;52.340;4.962;2023-05-27T13:25:09;5.67;;;4.67;;
36221;SDS011;22266;52.340;4.962;2023-05-27T13:27:37;7.00;;;7.00;;
36221;SDS011;22266;52.340;4.962;2023-05-27T13:30:04;7.00;;;6.67;;
36221;SDS011;22266;52.340;4.962;2023-05-27T13:32:31;6.33;;;6.33;;
36221;SDS011;22266;52.340;4.962;2023-05-27T13:34:58;12.33;;;7.33;;
36221;SDS011;22266;52.340;4.962;2023-05-27T13:37:24;11.67;;;9.33;;
36221;SDS011;22266;52.340;4.962;2023-05-27T13:39:51;8.00;;;6.00;;
36221;SDS011;22266;52.340;4.962;2023-05-27T13:42:17;6.00;;;5.67;;
36221;SDS011;22266;52.340;4.962;2023-05-27T13:44:44;6.00;;;6.00;;
36221;SDS011;22266;52.340;4.962;2023-05-27T13:47:11;11.33;;;9.00;;
36221;SDS011;22266;52.340;4.962;2023-05-27T13:49:38;7.67;;;3.33;;
36221;SDS011;22266;52.340;4.962;2023-05-27T13:52:05;9.00;;;8.00;;
36221;SDS011;22266;52.340;4.962;2023-05-27T13:54:32;9.33;;;8.33;;
36221;SDS011;22266;52.340;4.962;2023-05-27T13:56:59;10.00;;;9.67;;
36221;SDS011;22266;52.340;4.962;2023-05-27T13:59:25;6.00;;;6.00;;
36221;SDS011;22266;52.340;4.962;2023-05-27T14:01:52;7.33;;;7.00;;
36221;SDS011;22266;52.340;4.962;2023-05-27T14:04:20;7.50;;;6.00;;
36221;SDS011;22266;52.340;4.962;2023-05-27T14:06:47;8.50;;;7.00;;
36221;SDS011;22266;52.340;4.962;2023-05-27T14:09:13;7.00;;;7.00;;
36221;SDS011;22266;52.340;4.962;2023-05-27T14:11:40;7.67;;;7.67;;
36221;SDS011;22266;52.340;4.962;2023-05-27T14:14:06;9.33;;;7.67;;
36221;SDS011;22266;52.340;4.962;2023-05-27T14:16:33;6.67;;;6.67;;
36221;SDS011;22266;52.340;4.962;2023-05-27T14:18:59;9.00;;;7.00;;
36221;SDS011;22266;52.340;4.962;2023-05-27T14:21:26;6.25;;;4.00;;
36221;SDS011;22266;52.340;4.962;2023-05-27T14:23:52;7.00;;;6.00;;
36221;SDS011;22266;52.340;4.962;2023-05-27T14:26:19;11.67;;;7.67;;
36221;SDS011;22266;52.340;4.962;2023-05-27T14:28:46;8.75;;;8.00;;
36221;SDS011;22266;52.340;4.962;2023-05-27T14:31:13;8.00;;;7.00;;
36221;SDS011;22266;52.340;4.962;2023-05-27T14:33:39;8.67;;;7.33;;
36221;SDS011;22266;52.340;4.962;2023-05-27T14:36:06;9.67;;;8.00;;
36221;SDS011;22266;52.340;4.962;2023-05-27T14:38:33;10.00;;;7.00;;
36221;SDS011;22266;52.340;4.962;2023-05-27T14:41:00;5.75;;;5.75;;
36221;SDS011;22266;52.340;4.962;2023-05-27T14:43:27;6.25;;;6.25;;
36221;SDS011;22266;52.340;4.962;2023-05-27T14:45:53;15.67;;;15.67;;
36221;SDS011;22266;52.340;4.962;2023-05-27T14:48:20;7.25;;;7.25;;
36221;SDS011;22266;52.340;4.962;2023-05-27T14:50:46;8.00;;;7.00;;
36221;SDS011;22266;52.340;4.962;2023-05-27T14:53:13;7.75;;;6.00;;
36221;SDS011;22266;52.340;4.962;2023-05-27T14:55:39;6.25;;;5.25;;
36221;SDS011;22266;52.340;4.962;2023-05-27T14:58:06;5.00;;;5.00;;
36221;SDS011;22266;52.340;4.962;2023-05-27T15:00:33;6.25;;;5.25;;
36221;SDS011;22266;52.340;4.962;2023-05-27T15:02:59;6.50;;;6.00;;